createdAt,value
2018-07-11T00:00:35.447Z,84.94
2018-07-11T00:01:35.976Z,85.22
2018-07-11T00:02:35.410Z,84.84
2018-07-11T00:03:35.368Z,85.22
2018-07-11T00:04:35.345Z,85.89
2018-07-11T00:05:35.338Z,85.41
2018-07-11T00:06:35.308Z,85.71
2018-07-11T00:07:35.288Z,85.38
2018-07-11T00:08:35.279Z,86.43
2018-07-11T00:09:35.269Z,86.04
2018-07-11T00:10:35.246Z,85.89
2018-07-11T00:11:35.213Z,86.90
2018-07-11T00:12:35.954Z,86.90
2018-07-11T00:13:35.190Z,87.09
2018-07-11T00:14:35.158Z,87.00
2018-07-11T00:15:35.152Z,87.29
2018-07-11T00:16:35.141Z,87.38
2018-07-11T00:17:35.107Z,87.95
2018-07-11T00:18:35.127Z,87.57
2018-07-11T00:19:35.076Z,87.57
2018-07-11T00:20:35.058Z,87.86
2018-07-11T00:21:35.044Z,87.66
2018-07-11T00:22:35.008Z,87.76
2018-07-11T00:23:34.988Z,88.53
2018-07-11T00:24:35.012Z,88.91
2018-07-11T00:25:34.990Z,88.91
2018-07-11T00:26:34.940Z,88.81
2018-07-11T00:27:34.913Z,89.58
2018-07-11T00:28:34.904Z,89.67
2018-07-11T00:29:34.894Z,89.39
2018-07-11T00:30:34.869Z,89.39
2018-07-11T00:31:34.885Z,89.29
2018-07-11T00:32:34.817Z,89.39
2018-07-11T00:33:34.804Z,89.48
2018-07-11T00:34:34.775Z,90.06
2018-07-11T00:35:34.761Z,89.20
2018-07-11T00:36:34.754Z,89.39
2018-07-11T00:37:34.754Z,90.16
2018-07-11T00:38:34.704Z,90.06
2018-07-11T00:39:34.685Z,90.06
2018-07-11T00:40:34.675Z,90.44
2018-07-11T00:41:34.673Z,90.25
2018-07-11T00:42:34.638Z,90.44
2018-07-11T00:43:34.614Z,90.82
2018-07-11T00:44:41.532Z,90.92
2018-07-11T00:45:34.578Z,90.53
2018-07-11T00:46:34.552Z,90.92
2018-07-11T00:47:34.533Z,90.82
2018-07-11T00:48:34.515Z,91.20
2018-07-11T00:49:34.493Z,90.68
2018-07-11T00:50:34.471Z,91.97
2018-07-11T00:51:34.453Z,92.11
2018-07-11T00:52:34.434Z,92.25
2018-07-11T00:53:34.415Z,91.93
2018-07-11T00:54:34.418Z,92.16
2018-07-11T00:55:34.379Z,92.54
2018-07-11T00:56:34.388Z,92.97
2018-07-11T00:57:34.363Z,93.02
2018-07-11T00:58:34.339Z,92.74
2018-07-11T00:59:34.324Z,93.07
2018-07-11T01:00:34.290Z,92.35
2018-07-11T01:01:34.269Z,92.54
2018-07-11T01:02:34.256Z,92.74
2018-07-11T01:03:34.264Z,92.35
2018-07-11T01:04:34.228Z,93.02
2018-07-11T01:05:34.199Z,93.40
2018-07-11T01:06:34.180Z,93.02
2018-07-11T01:07:34.155Z,93.16
2018-07-11T01:08:34.139Z,93.74
2018-07-11T01:09:34.128Z,93.84
2018-07-11T01:10:34.108Z,94.22
2018-07-11T01:11:35.081Z,94.02
2018-07-11T01:12:34.055Z,94.12
2018-07-11T01:13:34.046Z,94.41
2018-07-11T01:14:34.038Z,94.22
2018-07-11T01:15:33.999Z,94.89
2018-07-11T01:16:36.538Z,94.89
2018-07-11T01:17:33.959Z,94.98
2018-07-11T01:18:33.951Z,94.70
2018-07-11T01:19:33.936Z,95.46
2018-07-11T01:20:33.940Z,95.65
2018-07-11T01:21:33.893Z,96.13
2018-07-11T01:22:33.891Z,96.22
2018-07-11T01:23:33.850Z,95.75
2018-07-11T01:24:33.835Z,95.84
2018-07-11T01:25:33.827Z,96.22
2018-07-11T01:26:33.829Z,96.51
2018-07-11T01:27:33.804Z,96.61
2018-07-11T01:28:33.754Z,96.70
2018-07-11T01:29:33.735Z,96.70
2018-07-11T01:30:33.715Z,96.51
2018-07-11T01:31:33.702Z,96.89
2018-07-11T01:32:33.694Z,96.70
2018-07-11T01:33:33.664Z,96.51
2018-07-11T01:34:33.661Z,97.28
2018-07-11T01:35:33.621Z,97.08
2018-07-11T01:36:33.597Z,96.61
2018-07-11T01:37:33.587Z,96.99
2018-07-11T01:38:33.591Z,96.89
2018-07-11T01:39:33.543Z,97.08
2018-07-11T01:40:33.528Z,97.37
2018-07-11T01:41:33.510Z,97.85
2018-07-11T01:42:33.498Z,97.80
2018-07-11T01:43:33.497Z,97.75
2018-07-11T01:44:33.443Z,97.85
2018-07-11T01:45:33.436Z,97.66
2018-07-11T01:46:33.410Z,98.13
2018-07-11T01:47:33.388Z,98.33
2018-07-11T01:48:33.371Z,98.28
2018-07-11T01:49:33.345Z,98.57
2018-07-11T01:50:33.342Z,98.08
2018-07-11T01:51:33.309Z,98.37
2018-07-11T01:52:33.307Z,98.28
2018-07-11T01:53:33.272Z,98.28
2018-07-11T01:54:33.253Z,98.08
2018-07-11T01:55:33.231Z,98.37
2018-07-11T01:56:33.252Z,98.75
2018-07-11T01:57:33.190Z,98.28
2018-07-11T01:58:33.174Z,98.37
2018-07-11T01:59:33.210Z,98.57
2018-07-11T02:00:33.138Z,98.94
2018-07-11T02:01:33.122Z,99.04
2018-07-11T02:02:33.102Z,99.04
2018-07-11T02:03:33.080Z,98.75
2018-07-11T02:04:33.088Z,98.75
2018-07-11T02:05:33.041Z,98.57
2018-07-11T02:06:33.024Z,98.66
2018-07-11T02:07:33.012Z,98.94
2018-07-11T02:08:32.984Z,99.43
2018-07-11T02:09:32.969Z,99.43
2018-07-11T02:10:32.973Z,99.52
2018-07-11T02:11:32.929Z,99.43
2018-07-11T02:12:32.899Z,99.23
2018-07-11T02:13:32.897Z,99.52
2018-07-11T02:14:32.871Z,99.43
2018-07-11T02:15:32.847Z,99.14
2018-07-11T02:16:32.835Z,99.99
2018-07-11T02:17:32.823Z,99.99
2018-07-11T02:18:32.815Z,99.99
2018-07-11T02:19:32.808Z,99.99
2018-07-11T02:20:32.756Z,99.99
2018-07-11T02:21:32.745Z,99.99
2018-07-11T02:22:32.705Z,99.99
2018-07-11T02:23:32.695Z,99.99
2018-07-11T02:24:32.677Z,99.99
2018-07-11T02:25:35.545Z,99.99
2018-07-11T02:26:32.630Z,99.99
2018-07-11T02:27:32.633Z,99.99
2018-07-11T02:28:32.614Z,99.99
2018-07-11T02:29:32.572Z,99.99
2018-07-11T02:30:32.569Z,99.99
2018-07-11T02:31:32.549Z,99.99
2018-07-11T02:32:32.516Z,99.99
2018-07-11T02:33:32.508Z,99.99
2018-07-11T02:34:32.490Z,99.99
2018-07-11T02:35:32.457Z,99.99
2018-07-11T02:36:32.466Z,99.99
2018-07-11T02:37:32.419Z,99.99
2018-07-11T02:38:32.403Z,99.99
2018-07-11T02:39:32.400Z,99.99
2018-07-11T02:40:32.373Z,99.99
2018-07-11T02:41:32.345Z,99.99
2018-07-11T02:42:32.324Z,99.99
2018-07-11T02:43:32.314Z,99.99
2018-07-11T02:44:32.298Z,99.99
2018-07-11T02:45:32.319Z,99.99
2018-07-11T02:46:32.243Z,99.99
2018-07-11T02:47:32.235Z,99.99
2018-07-11T02:48:32.247Z,99.99
2018-07-11T02:49:32.210Z,99.99
2018-07-11T02:50:32.164Z,99.99
2018-07-11T02:51:32.157Z,99.99
2018-07-11T02:52:32.126Z,99.99
2018-07-11T02:53:32.115Z,99.99
2018-07-11T02:54:32.089Z,99.99
2018-07-11T02:55:32.095Z,99.99
2018-07-11T02:56:32.060Z,99.99
2018-07-11T02:57:32.029Z,99.99
2018-07-11T02:58:32.004Z,99.99
2018-07-11T02:59:31.997Z,99.99
2018-07-11T03:00:31.980Z,99.99
2018-07-11T03:01:31.963Z,99.99
2018-07-11T03:02:31.938Z,99.99
2018-07-11T03:03:33.524Z,99.99
2018-07-11T03:06:28.090Z,99.99
2018-07-11T03:07:03.995Z,99.99
2018-07-11T03:08:58.350Z,99.99
2018-07-11T03:09:58.306Z,99.99
2018-07-11T03:10:58.309Z,99.99
2018-07-11T03:11:58.302Z,99.99
2018-07-11T03:12:58.254Z,99.99
2018-07-11T03:13:58.231Z,99.99
2018-07-11T03:14:58.211Z,99.99
2018-07-11T03:15:58.193Z,99.99
2018-07-11T03:16:58.173Z,99.99
2018-07-11T03:17:58.148Z,99.99
2018-07-11T03:18:58.133Z,99.99
2018-07-11T03:19:58.132Z,99.99
2018-07-11T03:20:58.184Z,99.99
2018-07-11T03:21:58.069Z,99.99
2018-07-11T03:22:58.098Z,99.99
2018-07-11T03:23:58.052Z,99.99
2018-07-11T03:24:58.017Z,99.99
2018-07-11T03:25:58.003Z,99.99
2018-07-11T03:26:58.017Z,99.99
2018-07-11T03:27:57.967Z,99.99
2018-07-11T03:28:57.974Z,99.99
2018-07-11T03:29:57.913Z,99.99
2018-07-11T03:30:57.900Z,99.99
2018-07-11T03:31:57.892Z,99.99
2018-07-11T03:32:57.860Z,99.99
2018-07-11T03:33:57.839Z,99.99
2018-07-11T03:34:57.824Z,99.99
2018-07-11T03:35:57.803Z,99.99
2018-07-11T03:36:57.779Z,99.99
2018-07-11T03:37:57.770Z,99.99
2018-07-11T03:38:57.740Z,99.99
2018-07-11T03:39:57.735Z,99.99
2018-07-11T03:40:57.700Z,99.99
2018-07-11T03:41:57.702Z,99.99
2018-07-11T03:42:57.664Z,99.99
2018-07-11T03:43:57.662Z,99.99
2018-07-11T03:44:57.637Z,99.99
2018-07-11T03:48:01.272Z,99.99
2018-07-11T03:48:29.684Z,99.99
2018-07-11T03:49:29.673Z,99.99
2018-07-11T03:50:29.632Z,99.99
2018-07-11T03:51:29.627Z,99.99
2018-07-11T03:52:36.268Z,99.99
2018-07-11T03:58:08.844Z,99.99
2018-07-11T03:59:15.391Z,99.99
2018-07-11T04:00:08.813Z,99.99
2018-07-11T04:01:08.786Z,99.99
2018-07-11T04:03:46.973Z,99.99
2018-07-11T04:04:40.848Z,99.99
2018-07-11T04:06:35.224Z,99.99
2018-07-11T04:07:35.201Z,99.99
2018-07-11T04:08:35.179Z,99.99
2018-07-11T04:09:35.165Z,99.99
2018-07-11T04:10:35.134Z,99.99
2018-07-11T04:13:36.793Z,99.99
2018-07-11T04:14:07.221Z,99.99
2018-07-11T04:16:00.606Z,99.99
2018-07-11T04:17:00.620Z,99.99
2018-07-11T04:18:54.950Z,99.99
2018-07-11T04:19:54.911Z,99.99
2018-07-11T04:20:54.913Z,99.99
2018-07-11T04:21:54.889Z,99.99
2018-07-11T04:22:54.897Z,99.99
2018-07-11T04:23:54.838Z,99.99
2018-07-11T04:24:54.813Z,99.99
2018-07-11T04:25:54.801Z,99.99
2018-07-11T04:26:54.793Z,99.99
2018-07-11T04:27:54.757Z,99.99
2018-07-11T04:28:54.740Z,99.99
2018-07-11T04:29:54.719Z,99.99
2018-07-11T04:30:54.708Z,99.99
2018-07-11T04:31:54.686Z,99.99
2018-07-11T04:32:54.669Z,99.99
2018-07-11T04:33:54.644Z,99.99
2018-07-11T04:34:54.651Z,99.99
2018-07-11T04:35:54.637Z,99.99
2018-07-11T04:36:54.580Z,99.99
2018-07-11T04:37:54.584Z,99.99
2018-07-11T04:38:54.555Z,99.99
2018-07-11T04:39:54.521Z,99.99
2018-07-11T04:40:54.500Z,99.99
2018-07-11T04:41:54.488Z,99.99
2018-07-11T04:42:54.510Z,99.99
2018-07-11T04:43:54.488Z,99.99
2018-07-11T04:44:54.430Z,99.99
2018-07-11T04:45:54.405Z,99.99
2018-07-11T04:49:59.599Z,99.99
2018-07-11T04:50:59.559Z,99.99
2018-07-11T04:52:53.925Z,99.99
2018-07-11T04:53:53.891Z,99.99
2018-07-11T04:54:53.864Z,99.99
2018-07-11T04:55:53.887Z,99.99
2018-07-11T04:56:53.825Z,99.99
2018-07-11T04:57:53.807Z,99.99
2018-07-11T04:58:53.808Z,99.99
2018-07-11T04:59:53.766Z,99.99
2018-07-11T05:00:53.758Z,99.99
2018-07-11T05:01:53.731Z,99.99
2018-07-11T05:02:53.711Z,99.99
2018-07-11T05:03:53.693Z,99.99
2018-07-11T05:04:53.694Z,99.99
2018-07-11T05:05:53.654Z,99.99
2018-07-11T05:06:53.637Z,99.99
2018-07-11T05:07:53.617Z,99.99
2018-07-11T05:08:53.593Z,99.99
2018-07-11T05:09:53.587Z,99.99
2018-07-11T05:10:53.566Z,99.99
2018-07-11T05:11:53.539Z,99.99
2018-07-11T05:12:53.523Z,99.99
2018-07-11T05:13:53.495Z,99.99
2018-07-11T05:14:53.482Z,99.99
2018-07-11T05:15:53.464Z,99.99
2018-07-11T05:16:53.443Z,99.99
2018-07-11T05:17:53.418Z,99.99
2018-07-11T05:18:53.404Z,99.99
2018-07-11T05:19:53.398Z,99.99
2018-07-11T05:20:53.365Z,99.99
2018-07-11T05:21:53.340Z,99.99
2018-07-11T05:22:53.323Z,99.99
2018-07-11T05:23:53.304Z,99.99
2018-07-11T05:24:53.310Z,99.99
2018-07-11T05:25:53.266Z,99.99
2018-07-11T05:26:53.252Z,99.99
2018-07-11T05:27:53.224Z,99.99
2018-07-11T05:28:53.201Z,99.99
2018-07-11T05:29:53.197Z,99.99
2018-07-11T05:30:53.210Z,99.99
2018-07-11T05:31:53.150Z,99.99
2018-07-11T05:32:53.133Z,99.99
2018-07-11T05:33:53.111Z,99.99
2018-07-11T05:34:53.098Z,99.99
2018-07-11T05:35:53.076Z,99.99
2018-07-11T05:36:53.073Z,99.99
2018-07-11T05:37:53.040Z,99.99
2018-07-11T05:38:53.025Z,99.99
2018-07-11T05:39:53.127Z,99.99
2018-07-11T05:40:52.992Z,99.99
2018-07-11T05:41:53.369Z,99.99
2018-07-11T05:42:52.963Z,99.99
2018-07-11T05:43:52.920Z,99.99
2018-07-11T05:44:52.912Z,99.99
2018-07-11T05:45:52.910Z,99.99
2018-07-11T05:46:52.880Z,99.99
2018-07-11T05:47:52.874Z,99.99
2018-07-11T05:48:52.828Z,99.99
2018-07-11T05:49:52.806Z,99.99
2018-07-11T05:50:52.843Z,99.99
2018-07-11T05:51:52.792Z,99.99
2018-07-11T05:52:52.749Z,99.99
2018-07-11T05:53:52.728Z,99.99
2018-07-11T05:54:52.725Z,99.99
2018-07-11T05:55:52.701Z,99.99
2018-07-11T05:56:52.673Z,99.99
2018-07-11T05:57:52.652Z,99.99
2018-07-11T05:58:52.629Z,99.99
2018-07-11T05:59:52.631Z,99.99
2018-07-11T06:00:52.595Z,99.99
2018-07-11T06:01:52.574Z,99.99
2018-07-11T06:02:52.566Z,99.99
2018-07-11T06:03:52.541Z,99.99
2018-07-11T06:04:52.524Z,99.99
2018-07-11T06:05:52.505Z,99.99
2018-07-11T06:06:52.494Z,99.99
2018-07-11T06:07:52.469Z,99.99
2018-07-11T06:08:52.466Z,99.99
2018-07-11T06:09:52.470Z,99.99
2018-07-11T06:10:52.445Z,99.99
2018-07-11T06:11:52.405Z,99.99
2018-07-11T06:12:52.405Z,99.99
2018-07-11T06:13:52.387Z,99.99
2018-07-11T06:14:52.368Z,99.99
2018-07-11T06:15:52.349Z,99.72
2018-07-11T06:16:52.364Z,99.99
2018-07-11T06:17:52.342Z,99.99
2018-07-11T06:18:52.318Z,99.99
2018-07-11T06:19:52.295Z,98.81
2018-07-11T06:20:52.280Z,97.47
2018-07-11T06:21:52.264Z,97.38
2018-07-11T06:22:52.257Z,97.56
2018-07-11T06:23:52.246Z,96.42
2018-07-11T06:24:52.222Z,96.51
2018-07-11T06:25:52.640Z,96.66
2018-07-11T06:26:52.195Z,96.37
2018-07-11T06:27:52.253Z,95.79
2018-07-11T06:28:52.163Z,95.41
2018-07-11T06:29:52.151Z,95.41
2018-07-11T06:30:52.148Z,95.03
2018-07-11T06:31:52.138Z,95.22
2018-07-11T06:32:52.117Z,95.03
2018-07-11T06:33:52.106Z,93.88
2018-07-11T06:34:52.091Z,92.77
2018-07-11T06:35:52.081Z,93.63
2018-07-11T06:36:52.075Z,92.68
2018-07-11T06:37:52.068Z,91.53
2018-07-11T06:38:52.101Z,92.54
2018-07-11T06:39:52.046Z,91.09
2018-07-11T06:40:52.024Z,89.75
2018-07-11T06:41:52.022Z,89.65
2018-07-11T06:42:52.016Z,89.22
2018-07-11T06:43:51.993Z,89.22
2018-07-11T06:44:52.008Z,88.89
2018-07-11T06:45:51.986Z,89.08
2018-07-11T06:46:51.959Z,88.93
2018-07-11T06:47:51.947Z,89.51
2018-07-11T06:48:51.952Z,89.51
2018-07-11T06:49:51.955Z,86.82
2018-07-11T06:50:51.914Z,85.77
2018-07-11T06:51:51.915Z,86.54
2018-07-11T06:52:51.894Z,86.34
2018-07-11T06:53:51.889Z,86.68
2018-07-11T06:54:51.887Z,85.33
2018-07-11T06:55:51.958Z,84.47
2018-07-11T06:56:51.901Z,84.85
2018-07-11T06:57:51.854Z,85.81
2018-07-11T06:58:51.862Z,85.33
2018-07-11T06:59:51.832Z,84.66
2018-07-11T07:00:51.850Z,83.31
2018-07-11T07:01:51.832Z,83.98
2018-07-11T07:02:51.814Z,85.24
2018-07-11T07:03:51.815Z,85.04
2018-07-11T07:04:51.805Z,85.28
2018-07-11T07:05:51.783Z,84.03
2018-07-11T07:06:51.801Z,82.78
2018-07-11T07:07:51.793Z,82.49
2018-07-11T07:08:51.764Z,83.26
2018-07-11T07:09:51.752Z,81.53
2018-07-11T07:10:51.739Z,81.82
2018-07-11T07:11:51.766Z,81.24
2018-07-11T07:12:51.725Z,81.34
2018-07-11T07:13:51.721Z,81.38
2018-07-11T07:14:51.719Z,80.90
2018-07-11T07:15:51.697Z,80.04
2018-07-11T07:16:51.700Z,80.80
2018-07-11T07:17:51.696Z,80.90
2018-07-11T07:18:51.678Z,80.42
2018-07-11T07:19:51.674Z,80.61
2018-07-11T07:20:51.683Z,80.99
2018-07-11T07:21:51.661Z,81.19
2018-07-11T07:22:51.652Z,80.22
2018-07-11T07:23:51.642Z,79.84
2018-07-11T07:24:51.630Z,80.96
2018-07-11T07:25:51.634Z,80.96
2018-07-11T07:26:51.643Z,81.53
2018-07-11T07:27:51.631Z,81.92
2018-07-11T07:28:51.623Z,81.24
2018-07-11T07:29:51.599Z,81.53
2018-07-11T07:30:51.595Z,80.76
2018-07-11T07:31:51.585Z,81.19
2018-07-11T07:32:51.568Z,80.22
2018-07-11T07:33:51.569Z,79.84
2018-07-11T07:34:51.628Z,79.50
2018-07-11T07:35:51.537Z,77.00
2018-07-11T07:36:51.583Z,77.76
2018-07-11T07:37:51.540Z,77.23
2018-07-11T07:38:51.512Z,76.42
2018-07-11T07:39:51.498Z,77.23
2018-07-11T07:40:51.495Z,78.28
2018-07-11T07:41:51.482Z,79.35
2018-07-11T07:42:51.469Z,77.90
2018-07-11T07:43:51.477Z,77.42
2018-07-11T07:44:51.450Z,75.15
2018-07-11T07:45:51.462Z,73.99
2018-07-11T07:46:51.440Z,73.90
2018-07-11T07:47:51.434Z,74.38
2018-07-11T07:48:51.421Z,76.07
2018-07-11T07:49:51.390Z,74.54
2018-07-11T07:50:51.384Z,75.11
2018-07-11T07:51:51.367Z,76.36
2018-07-11T07:52:51.412Z,76.04
2018-07-11T07:53:51.349Z,76.04
2018-07-11T07:54:51.341Z,78.06
2018-07-11T07:55:51.332Z,77.38
2018-07-11T07:56:51.317Z,76.52
2018-07-11T07:57:51.300Z,76.71
2018-07-11T07:58:51.284Z,77.09
2018-07-11T07:59:51.277Z,77.33
2018-07-11T08:00:51.259Z,76.65
2018-07-11T08:01:51.257Z,77.04
2018-07-11T08:02:51.239Z,77.04
2018-07-11T08:03:51.223Z,75.98
2018-07-11T08:04:51.247Z,75.59
2018-07-11T08:05:51.199Z,75.98
2018-07-11T08:06:51.213Z,76.75
2018-07-11T08:07:51.171Z,75.98
2018-07-11T08:08:51.175Z,77.13
2018-07-11T08:09:51.215Z,76.46
2018-07-11T08:10:51.137Z,76.75
2018-07-11T08:11:51.122Z,76.75
2018-07-11T08:12:51.112Z,76.07
2018-07-11T08:13:51.103Z,76.07
2018-07-11T08:14:51.087Z,75.31
2018-07-11T08:15:51.069Z,75.59
2018-07-11T08:16:51.088Z,75.82
2018-07-11T08:17:51.054Z,74.76
2018-07-11T08:18:51.030Z,73.71
2018-07-11T08:19:51.024Z,74.19
2018-07-11T08:20:51.017Z,74.76
2018-07-11T08:21:51.152Z,76.07
2018-07-11T08:22:50.990Z,76.11
2018-07-11T08:23:50.971Z,76.07
2018-07-11T08:24:50.985Z,76.88
2018-07-11T08:25:50.964Z,75.24
2018-07-11T08:26:50.931Z,74.96
2018-07-11T08:27:50.919Z,74.48
2018-07-11T08:28:50.911Z,73.61
2018-07-11T08:29:50.894Z,72.17
2018-07-11T08:30:50.916Z,73.03
2018-07-11T08:31:50.914Z,72.65
2018-07-11T08:32:50.880Z,72.71
2018-07-11T08:33:50.843Z,73.00
2018-07-11T08:34:50.833Z,74.82
2018-07-11T08:35:50.823Z,73.77
2018-07-11T08:36:50.809Z,72.71
2018-07-11T08:37:50.789Z,72.52
2018-07-11T08:38:50.778Z,72.71
2018-07-11T08:39:50.793Z,73.57
2018-07-11T08:40:50.769Z,72.23
2018-07-11T08:41:50.745Z,72.71
2018-07-11T08:42:50.755Z,72.90
2018-07-11T08:43:50.735Z,73.00
2018-07-11T08:44:50.716Z,72.80
2018-07-11T08:45:50.697Z,71.36
2018-07-11T08:46:50.679Z,72.32
2018-07-11T08:47:50.743Z,72.61
2018-07-11T08:48:50.652Z,73.00
2018-07-11T08:49:50.653Z,71.65
2018-07-11T08:50:50.628Z,72.74
2018-07-11T08:51:50.615Z,70.62
2018-07-11T08:52:50.605Z,70.82
2018-07-11T08:53:50.608Z,70.72
2018-07-11T08:54:50.582Z,71.59
2018-07-11T08:55:50.562Z,72.74
2018-07-11T08:56:50.547Z,72.94
2018-07-11T08:57:50.549Z,71.04
2018-07-11T08:58:50.518Z,71.14
2018-07-11T08:59:50.504Z,71.81
2018-07-11T09:00:50.543Z,72.45
2018-07-11T09:01:50.492Z,71.59
2018-07-11T09:02:50.511Z,69.89
2018-07-11T09:03:50.453Z,68.41
2018-07-11T09:04:50.439Z,68.35
2018-07-11T09:05:50.444Z,68.06
2018-07-11T09:06:50.434Z,71.62
2018-07-11T09:07:50.411Z,70.66
2018-07-11T09:08:50.435Z,71.53
2018-07-11T09:09:50.382Z,71.91
2018-07-11T09:10:50.398Z,70.66
2018-07-11T09:11:50.353Z,71.72
2018-07-11T09:12:50.336Z,72.39
2018-07-11T09:13:50.330Z,71.62
2018-07-11T09:14:50.309Z,71.04
2018-07-11T09:15:50.304Z,70.66
2018-07-11T09:16:50.283Z,70.37
2018-07-11T09:17:50.279Z,70.89
2018-07-11T09:18:50.266Z,71.47
2018-07-11T09:19:50.246Z,70.86
2018-07-11T09:20:50.238Z,70.31
2018-07-11T09:21:50.232Z,69.15
2018-07-11T09:22:50.207Z,67.81
2018-07-11T09:23:50.211Z,67.61
2018-07-11T09:24:50.185Z,66.94
2018-07-11T09:25:50.172Z,67.71
2018-07-11T09:26:50.157Z,66.85
2018-07-11T09:27:50.142Z,66.17
2018-07-11T09:28:50.138Z,66.42
2018-07-11T09:29:50.136Z,66.42
2018-07-11T09:30:50.118Z,66.65
2018-07-11T09:31:50.091Z,64.82
2018-07-11T09:32:50.088Z,63.67
2018-07-11T09:33:50.113Z,63.31
2018-07-11T09:34:50.093Z,63.89
2018-07-11T09:35:50.046Z,62.63
2018-07-11T09:36:50.034Z,62.06
2018-07-11T09:37:50.026Z,62.09
2018-07-11T09:38:50.007Z,62.38
2018-07-11T09:39:50.020Z,60.06
2018-07-11T09:40:49.982Z,61.35
2018-07-11T09:41:49.982Z,59.42
2018-07-11T09:42:49.965Z,59.83
2018-07-11T09:43:49.949Z,58.58
2018-07-11T09:44:49.949Z,59.35
2018-07-11T09:45:49.943Z,58.29
2018-07-11T09:46:49.912Z,57.23
2018-07-11T09:47:49.907Z,58.10
2018-07-11T09:48:49.901Z,57.52
2018-07-11T09:49:49.884Z,58.10
2018-07-11T09:50:49.867Z,58.07
2018-07-11T09:51:49.854Z,58.36
2018-07-11T09:52:49.843Z,57.94
2018-07-11T09:53:49.831Z,57.94
2018-07-11T09:54:49.819Z,57.85
2018-07-11T09:55:49.808Z,59.10
2018-07-11T09:56:49.802Z,61.99
2018-07-11T09:57:49.784Z,61.41
2018-07-11T09:58:49.802Z,61.48
2018-07-11T09:59:49.777Z,60.03
2018-07-11T10:00:49.775Z,60.52
2018-07-11T10:01:49.764Z,60.42
2018-07-11T10:02:49.715Z,61.29
2018-07-11T10:03:49.709Z,60.52
2018-07-11T10:04:49.708Z,60.23
2018-07-11T10:05:49.699Z,61.41
2018-07-11T10:06:49.680Z,60.45
2018-07-11T10:07:49.659Z,60.55
2018-07-11T10:08:49.649Z,61.22
2018-07-11T10:09:49.647Z,59.39
2018-07-11T10:10:49.625Z,59.00
2018-07-11T10:11:49.651Z,58.62
2018-07-11T10:12:49.605Z,58.33
2018-07-11T10:13:49.587Z,58.72
2018-07-11T10:14:49.592Z,57.59
2018-07-11T10:15:49.573Z,57.20
2018-07-11T10:16:49.556Z,57.29
2018-07-11T10:17:49.550Z,56.62
2018-07-11T10:18:49.547Z,56.65
2018-07-11T10:19:49.519Z,55.68
2018-07-11T10:20:49.512Z,56.26
2018-07-11T10:21:49.495Z,56.84
2018-07-11T10:22:49.481Z,55.13
2018-07-11T10:23:49.475Z,56.39
2018-07-11T10:24:49.471Z,57.26
2018-07-11T10:25:49.489Z,54.77
2018-07-11T10:26:49.430Z,53.59
2018-07-11T10:27:49.459Z,54.39
2018-07-11T10:28:49.438Z,55.65
2018-07-11T10:29:49.414Z,55.26
2018-07-11T10:30:49.413Z,54.75
2018-07-11T10:31:49.383Z,54.87
2018-07-11T10:32:49.370Z,54.77
2018-07-11T10:33:49.357Z,53.71
2018-07-11T10:34:49.345Z,53.52
2018-07-11T10:35:49.333Z,53.71
2018-07-11T10:36:49.319Z,53.33
2018-07-11T10:37:49.311Z,54.29
2018-07-11T10:38:49.302Z,54.39
2018-07-11T10:39:49.284Z,54.19
2018-07-11T10:40:49.274Z,51.68
2018-07-11T10:41:49.365Z,52.17
2018-07-11T10:42:49.300Z,52.55
2018-07-11T10:43:49.280Z,53.33
2018-07-11T10:44:49.267Z,53.52
2018-07-11T10:45:49.249Z,54.10
2018-07-11T10:46:49.226Z,53.23
2018-07-11T10:47:49.195Z,53.16
2018-07-11T10:48:49.186Z,51.81
2018-07-11T10:49:49.196Z,51.06
2018-07-11T10:50:49.170Z,51.81
2018-07-11T10:51:49.196Z,52.77
2018-07-11T10:52:49.147Z,54.32
2018-07-11T10:53:49.136Z,55.38
2018-07-11T10:54:49.144Z,54.93
2018-07-11T10:55:49.110Z,56.37
2018-07-11T10:56:49.144Z,55.89
2018-07-11T10:57:49.206Z,55.38
2018-07-11T10:58:49.166Z,56.05
2018-07-11T10:59:49.069Z,56.05
2018-07-11T11:01:05.030Z,55.35
2018-07-11T11:01:49.070Z,56.73
2018-07-11T11:02:49.076Z,56.61
2018-07-11T11:03:49.029Z,58.09
2018-07-11T11:04:49.021Z,57.99
2018-07-11T11:05:49.014Z,58.18
2018-07-11T11:06:49.001Z,58.73
2018-07-11T11:07:48.990Z,57.96
2018-07-11T11:08:48.983Z,58.73
2018-07-11T11:09:48.966Z,59.15
2018-07-11T11:10:48.960Z,58.06
2018-07-11T11:11:48.942Z,58.76
2018-07-11T11:12:48.929Z,58.47
2018-07-11T11:13:48.946Z,57.99
2018-07-11T11:14:48.909Z,58.47
2018-07-11T11:15:48.907Z,59.44
2018-07-11T11:16:48.895Z,58.86
2018-07-11T11:17:49.101Z,58.76
2018-07-11T11:18:48.876Z,58.18
2018-07-11T11:19:48.861Z,58.37
2018-07-11T11:20:48.857Z,59.73
2018-07-11T11:21:48.975Z,60.99
2018-07-11T11:22:48.829Z,60.02
2018-07-11T11:23:48.814Z,59.92
2018-07-11T11:24:48.821Z,60.18
2018-07-11T11:25:48.881Z,59.70
2018-07-11T11:26:48.782Z,59.80
2018-07-11T11:27:48.787Z,59.99
2018-07-11T11:28:48.795Z,61.05
2018-07-11T11:29:48.762Z,59.80
2018-07-11T11:30:48.752Z,60.57
2018-07-11T11:31:48.797Z,61.83
2018-07-11T11:32:48.765Z,61.89
2018-07-11T11:33:48.718Z,61.12
2018-07-11T11:34:48.696Z,61.60
2018-07-11T11:35:48.707Z,62.02
2018-07-11T11:36:48.678Z,63.02
2018-07-11T11:37:48.683Z,61.86
2018-07-11T11:38:48.662Z,61.30
2018-07-11T11:39:48.651Z,62.01
2018-07-11T11:40:48.652Z,59.89
2018-07-11T11:41:48.724Z,57.79
2018-07-11T11:42:48.618Z,56.72
2018-07-11T11:43:48.622Z,57.50
2018-07-11T11:44:48.597Z,58.39
2018-07-11T11:45:48.585Z,57.88
2018-07-11T11:46:48.578Z,58.17
2018-07-11T11:47:48.561Z,58.24
2018-07-11T11:48:48.561Z,58.98
2018-07-11T11:49:48.550Z,58.02
2018-07-11T11:50:48.595Z,60.11
2018-07-11T11:51:48.522Z,59.92
2018-07-11T11:52:48.519Z,59.44
2018-07-11T11:53:48.523Z,60.21
2018-07-11T11:54:48.502Z,60.38
2018-07-11T11:55:48.664Z,61.54
2018-07-11T11:56:48.595Z,62.08
2018-07-11T11:57:48.478Z,62.47
2018-07-11T11:58:48.452Z,62.37
2018-07-11T11:59:48.450Z,62.08
2018-07-11T12:00:48.440Z,61.80
2018-07-11T12:01:48.593Z,63.05
2018-07-11T12:02:48.559Z,62.76
2018-07-11T12:03:48.402Z,61.60
2018-07-11T12:04:48.397Z,62.08
2018-07-11T12:05:48.408Z,61.31
2018-07-11T12:06:48.401Z,61.80
2018-07-11T12:07:48.412Z,63.50
2018-07-11T12:08:48.356Z,63.60
2018-07-11T12:09:48.486Z,63.60
2018-07-11T12:10:48.334Z,62.34
2018-07-11T12:11:48.313Z,62.34
2018-07-11T12:12:48.303Z,62.70
2018-07-11T12:13:48.295Z,63.67
2018-07-11T12:14:48.288Z,63.18
2018-07-11T12:15:48.273Z,63.85
2018-07-11T12:16:48.300Z,65.78
2018-07-11T12:17:48.257Z,64.63
2018-07-11T12:18:48.229Z,63.76
2018-07-11T12:19:48.229Z,62.92
2018-07-11T12:20:48.225Z,62.92
2018-07-11T12:21:48.208Z,63.12
2018-07-11T12:22:48.185Z,63.50
2018-07-11T12:23:48.189Z,63.63
2018-07-11T12:24:48.176Z,63.15
2018-07-11T12:25:48.156Z,61.99
2018-07-11T12:26:48.139Z,61.60
2018-07-11T12:27:48.122Z,61.60
2018-07-11T12:28:48.116Z,61.99
2018-07-11T12:29:48.106Z,61.80
2018-07-11T12:30:48.099Z,62.66
2018-07-11T12:31:50.596Z,62.37
2018-07-11T12:32:48.071Z,62.28
2018-07-11T12:33:50.599Z,64.11
2018-07-11T12:34:48.049Z,63.73
2018-07-11T12:35:48.029Z,62.66
2018-07-11T12:36:48.019Z,61.96
2018-07-11T12:37:50.613Z,62.54
2018-07-11T12:38:47.997Z,62.73
2018-07-11T12:39:48.008Z,63.50
2018-07-11T12:40:47.977Z,64.18
2018-07-11T12:41:47.967Z,64.56
2018-07-11T12:42:47.947Z,62.34
2018-07-11T12:43:47.942Z,61.77
2018-07-11T12:44:47.954Z,63.50
2018-07-11T12:45:47.908Z,64.43
2018-07-11T12:46:47.938Z,65.11
2018-07-11T12:47:47.890Z,64.34
2018-07-11T12:48:47.905Z,63.82
2018-07-11T12:49:47.907Z,66.27
2018-07-11T12:50:47.854Z,65.50
2018-07-11T12:51:47.856Z,64.72
2018-07-11T12:52:47.829Z,65.20
2018-07-11T12:53:47.818Z,65.69
2018-07-11T12:54:47.851Z,65.11
2018-07-11T12:55:47.794Z,66.17
2018-07-11T12:56:47.780Z,66.66
2018-07-11T12:57:47.770Z,66.66
2018-07-11T12:58:47.762Z,66.08
2018-07-11T12:59:47.742Z,65.69
2018-07-11T13:00:47.747Z,67.04
2018-07-11T13:01:47.721Z,68.26
2018-07-11T13:02:47.721Z,69.80
2018-07-11T13:03:47.743Z,70.48
2018-07-11T13:04:47.691Z,68.84
2018-07-11T13:05:47.675Z,67.40
2018-07-11T13:06:47.659Z,66.72
2018-07-11T13:07:47.640Z,67.10
2018-07-11T13:08:47.632Z,67.00
2018-07-11T13:09:47.616Z,67.40
2018-07-11T13:10:47.607Z,68.16